Time;durP1;ratioP1;P1;durP2;ratioP2;P2;SDS_P1;SDS_P2;PMS_P1;PMS_P2;Temp;Humidity;BMP_temperature;BMP_pressure;BME280_temperature;BME280_humidity;BME280_pressure;Samples;Min_cycle;Max_cycle;Signal;HPM_P1;HPM_P2
2021/04/27 00:00:20;;;;;;;2.47;1.50;;;;;;;4.03;50.75;100855.81;5027953;28;20202;-88
2021/04/27 00:02:46;;;;;;;1.97;1.67;;;;;;;4.01;50.87;100854.13;5028148;28;20211;-88
2021/04/27 00:05:14;;;;;;;1.57;1.10;;;;;;;3.98;50.39;100859.50;5028639;28;20198;-89
2021/04/27 00:07:41;;;;;;;2.07;1.43;;;;;;;3.95;50.68;100859.59;5030567;28;20232;-89
2021/04/27 00:10:09;;;;;;;2.87;1.33;;;;;;;3.90;51.23;100859.78;5023372;28;20207;-89
2021/04/27 00:12:36;;;;;;;1.90;1.20;;;;;;;3.88;50.30;100853.69;5028883;28;20225;-89
2021/04/27 00:15:04;;;;;;;3.93;1.23;;;;;;;3.86;51.05;100852.00;5031516;28;20657;-88
2021/04/27 00:17:30;;;;;;;2.00;1.23;;;;;;;3.85;50.78;100853.78;5028576;28;20745;-87
2021/04/27 00:19:56;;;;;;;2.20;1.37;;;;;;;3.82;51.07;100851.25;5027910;28;20740;-88
2021/04/27 00:22:22;;;;;;;3.60;1.63;;;;;;;3.76;50.61;100844.41;5024064;28;20281;-87
2021/04/27 00:24:48;;;;;;;3.50;1.20;;;;;;;3.71;50.97;100842.84;5027874;28;20198;-88
2021/04/27 00:27:15;;;;;;;1.43;1.20;;;;;;;3.68;50.91;100842.94;5028336;28;20424;-87
2021/04/27 00:29:42;;;;;;;2.33;1.30;;;;;;;3.65;51.79;100843.88;5021607;28;20226;-89
2021/04/27 00:32:08;;;;;;;1.40;1.30;;;;;;;3.61;51.80;100830.84;5025017;28;20221;-88
2021/04/27 00:34:34;;;;;;;1.57;1.27;;;;;;;3.59;51.57;100840.56;5027534;28;20232;-88
2021/04/27 00:37:00;;;;;;;2.70;1.40;;;;;;;3.55;52.04;100834.56;5022963;28;20198;-88
2021/04/27 00:39:26;;;;;;;1.53;1.20;;;;;;;3.52;51.33;100837.28;5021487;28;20554;-87
2021/04/27 00:41:52;;;;;;;1.40;1.30;;;;;;;3.49;51.87;100830.34;5023049;28;20209;-87
2021/04/27 00:44:18;;;;;;;3.17;1.43;;;;;;;3.47;51.83;100828.66;5031925;28;20642;-88
2021/04/27 00:46:45;;;;;;;2.33;1.33;;;;;;;3.45;52.20;100830.47;5040876;28;20300;-87
2021/04/27 00:49:11;;;;;;;2.60;1.50;;;;;;;3.41;51.81;100842.00;5052915;28;20318;-87
2021/04/27 00:51:38;;;;;;;3.63;1.60;;;;;;;3.36;52.13;100826.38;5035549;28;20233;-87
2021/04/27 00:54:06;;;;;;;1.70;1.40;;;;;;;3.34;51.95;100833.47;5020824;28;20222;-88
2021/04/27 00:56:33;;;;;;;1.83;1.40;;;;;;;3.32;52.27;100839.69;5038608;28;20208;-88
2021/04/27 00:58:59;;;;;;;1.73;1.37;;;;;;;3.29;52.35;100843.25;5019808;28;20310;-88
2021/04/27 01:01:25;;;;;;;3.93;1.60;;;;;;;3.26;52.11;100824.06;5027918;28;20230;-88
2021/04/27 01:03:52;;;;;;;3.33;1.40;;;;;;;3.23;52.23;100825.00;5023556;28;20398;-89
2021/04/27 01:06:19;;;;;;;3.37;1.60;;;;;;;3.20;52.70;100826.91;5025279;28;20294;-88
2021/04/27 01:08:50;;;;;;;1.33;1.10;;;;;;;3.15;52.32;100824.41;5021306;28;20223;-90
2021/04/27 01:11:25;;;;;;;2.70;1.80;;;;;;;3.12;52.57;100821.84;5022692;28;20211;-88
2021/04/27 01:13:57;;;;;;;2.57;1.50;;;;;;;3.07;52.50;100821.97;5025473;28;20216;-88
2021/04/27 01:16:25;;;;;;;2.10;1.30;;;;;;;2.98;52.63;100826.66;5030893;28;20281;-87
2021/04/27 01:18:54;;;;;;;3.00;1.50;;;;;;;2.93;53.20;100824.16;5031989;28;20247;-87
2021/04/27 01:21:22;;;;;;;1.57;1.20;;;;;;;2.88;52.67;100823.44;5020995;28;20210;-87
2021/04/27 01:24:03;;;;;;;2.53;1.27;;;;;;;2.86;53.04;100821.78;5018861;28;20237;-89
2021/04/27 01:26:42;;;;;;;1.80;1.40;;;;;;;2.82;53.21;100823.63;5025551;28;20291;-88
2021/04/27 01:29:11;;;;;;;3.43;1.50;;;;;;;2.78;53.20;100822.84;5032130;28;20226;-87
2021/04/27 01:31:38;;;;;;;3.43;1.90;;;;;;;2.75;53.44;100822.06;5029257;28;20210;-87
2021/04/27 01:34:06;;;;;;;1.93;1.30;;;;;;;2.71;54.01;100812.53;5025678;28;20279;-87
2021/04/27 01:36:33;;;;;;;2.50;1.30;;;;;;;2.66;53.99;100807.44;5029707;28;20206;-88
2021/04/27 01:39:00;;;;;;;2.93;1.40;;;;;;;2.64;54.06;100819.75;5031810;28;20309;-88
2021/04/27 01:41:26;;;;;;;2.77;1.43;;;;;;;2.60;53.95;100811.97;5027273;28;20216;-87
2021/04/27 01:43:53;;;;;;;1.47;1.33;;;;;;;2.56;54.27;100811.19;5030089;28;20648;-87
2021/04/27 01:46:21;;;;;;;2.77;1.47;;;;;;;2.51;53.99;100807.81;5031900;28;20252;-88
2021/04/27 01:48:48;;;;;;;1.73;1.10;;;;;;;2.48;54.02;100810.56;5030978;28;20317;-87
2021/04/27 01:51:15;;;;;;;2.50;1.30;;;;;;;2.44;54.29;100801.03;5029601;28;20206;-88
2021/04/27 01:53:43;;;;;;;2.63;1.40;;;;;;;2.39;54.14;100802.91;5021783;28;20312;-88
2021/04/27 01:56:11;;;;;;;3.43;1.33;;;;;;;2.36;54.28;100809.13;5031347;28;20289;-88
2021/04/27 01:58:37;;;;;;;1.90;1.47;;;;;;;2.32;54.68;100809.25;5029862;28;20261;-87
2021/04/27 02:01:06;;;;;;;2.93;1.50;;;;;;;2.28;54.66;100805.00;5031603;28;20281;-86
2021/04/27 02:03:41;;;;;;;2.67;1.30;;;;;;;2.24;55.01;100813.84;5021777;28;20298;-86
2021/04/27 02:06:08;;;;;;;1.70;1.10;;;;;;;2.21;54.75;100803.41;5025851;28;20260;-87
2021/04/27 02:08:34;;;;;;;2.60;1.20;;;;;;;2.18;55.29;100803.50;5029892;28;20228;-88
2021/04/27 02:11:01;;;;;;;3.43;1.47;;;;;;;2.17;55.24;100810.50;5030385;28;20586;-88
2021/04/27 02:13:27;;;;;;;3.10;1.17;;;;;;;2.15;55.32;100809.69;5029570;28;20233;-87
2021/04/27 02:15:55;;;;;;;3.50;1.63;;;;;;;2.13;55.69;100808.88;5026527;28;20212;-87
2021/04/27 02:18:27;;;;;;;1.73;1.47;;;;;;;2.12;55.60;100811.56;5025114;28;20234;-87
2021/04/27 02:20:58;;;;;;;2.07;1.50;;;;;;;2.11;55.61;100808.06;5028866;28;20205;-87
2021/04/27 02:23:25;;;;;;;2.60;1.27;;;;;;;2.11;55.40;100812.47;5023959;28;20198;-87
2021/04/27 02:25:53;;;;;;;3.00;1.40;;;;;;;2.07;55.37;100812.53;5024256;28;20660;-88
2021/04/27 02:28:20;;;;;;;1.40;1.30;;;;;;;2.01;55.81;100807.44;5026558;28;20738;-86
2021/04/27 02:30:48;;;;;;;2.93;1.30;;;;;;;1.99;55.49;100808.34;5015925;28;20205;-86
2021/04/27 02:33:15;;;;;;;1.70;1.27;;;;;;;1.95;56.06;100807.59;5018003;28;20233;-87
2021/04/27 02:35:43;;;;;;;2.13;1.57;;;;;;;1.92;55.97;100802.44;5030633;28;20234;-88
2021/04/27 02:38:11;;;;;;;1.67;1.30;;;;;;;1.91;56.32;100797.22;5027155;28;20653;-87
2021/04/27 02:40:38;;;;;;;1.50;1.30;;;;;;;1.89;55.99;100793.75;5019430;28;20310;-87
2021/04/27 02:43:05;;;;;;;3.43;1.30;;;;;;;1.87;56.17;100791.16;5015146;28;20213;-88
2021/04/27 02:45:34;;;;;;;2.20;1.53;;;;;;;1.83;56.15;100783.38;5016424;28;20293;-87
2021/04/27 02:48:11;;;;;;;2.23;1.53;;;;;;;1.79;56.35;100794.91;5027828;28;20219;-87
2021/04/27 02:50:39;;;;;;;1.67;1.30;;;;;;;1.74;56.41;100784.50;5022700;28;20256;-86
2021/04/27 02:53:06;;;;;;;2.53;1.40;;;;;;;1.68;56.29;100787.28;5020553;28;20229;-88
2021/04/27 02:55:32;;;;;;;2.77;1.30;;;;;;;1.64;56.50;100785.63;5021013;28;20285;-87
2021/04/27 02:57:59;;;;;;;2.70;1.40;;;;;;;1.60;56.93;100794.50;5022599;28;20235;-86
2021/04/27 03:00:25;;;;;;;2.60;1.70;;;;;;;1.59;57.14;100791.00;5018979;28;20301;-89
2021/04/27 03:02:51;;;;;;;2.50;1.77;;;;;;;1.55;56.99;100784.09;5017682;28;20210;-89
2021/04/27 03:05:18;;;;;;;2.20;1.50;;;;;;;1.55;57.33;100786.72;5017509;28;20199;-87
2021/04/27 03:07:45;;;;;;;2.93;1.30;;;;;;;1.55;57.06;100785.84;5032137;28;20230;-86
2021/04/27 03:10:12;;;;;;;3.37;1.50;;;;;;;1.53;57.05;100777.16;5051194;28;20214;-86
2021/04/27 03:12:39;;;;;;;2.37;1.60;;;;;;;1.51;57.41;100782.44;5047284;28;20225;-86
2021/04/27 03:15:07;;;;;;;2.07;1.70;;;;;;;1.48;57.63;100779.03;5052552;28;20249;-86
2021/04/27 03:17:34;;;;;;;2.77;1.97;;;;;;;1.47;57.78;100772.03;5056747;28;20260;-85
2021/04/27 03:20:00;;;;;;;2.87;1.70;;;;;;;1.45;57.93;100781.72;5044563;28;20207;-86
2021/04/27 03:22:27;;;;;;;4.33;1.50;;;;;;;1.42;58.00;100777.44;5026556;28;20582;-87
2021/04/27 03:24:53;;;;;;;2.50;1.60;;;;;;;1.39;57.99;100775.72;5025883;28;20198;-88
2021/04/27 03:27:20;;;;;;;5.07;1.67;;;;;;;1.40;58.17;100776.59;5025835;28;20199;-86
2021/04/27 03:29:46;;;;;;;2.03;1.57;;;;;;;1.41;58.58;100778.31;5023453;28;20222;-89
2021/04/27 03:32:12;;;;;;;3.47;1.50;;;;;;;1.39;58.35;100782.75;5024088;28;20205;-88
2021/04/27 03:34:38;;;;;;;3.23;1.60;;;;;;;1.37;58.13;100776.66;5022903;28;20229;-88
2021/04/27 03:37:05;;;;;;;2.07;1.50;;;;;;;1.34;58.23;100777.59;5024489;28;20199;-89
2021/04/27 03:39:31;;;;;;;2.57;1.40;;;;;;;1.32;58.29;100779.38;5028452;28;20234;-88
2021/04/27 03:41:57;;;;;;;2.93;1.27;;;;;;;1.31;58.03;100775.03;5027899;28;20214;-88
2021/04/27 03:44:24;;;;;;;5.43;1.93;;;;;;;1.29;58.31;100771.56;5022849;28;20207;-88
2021/04/27 03:46:50;;;;;;;2.13;1.73;;;;;;;1.28;58.60;100769.84;5026816;28;20232;-87
2021/04/27 03:49:16;;;;;;;1.63;1.53;;;;;;;1.25;58.80;100772.56;5044449;28;20248;-88
2021/04/27 03:51:42;;;;;;;3.07;1.60;;;;;;;1.23;58.62;100774.38;5060027;28;20232;-91
2021/04/27 03:54:09;;;;;;;3.03;1.87;;;;;;;1.22;58.50;100777.03;5048779;28;20738;-87
2021/04/27 03:56:35;;;;;;;3.07;1.73;;;;;;;1.18;58.62;100776.22;5038532;28;20210;-85
2021/04/27 03:59:01;;;;;;;3.23;1.77;;;;;;;1.17;58.78;100776.25;5033792;28;20230;-85
2021/04/27 04:01:28;;;;;;;2.63;1.40;;;;;;;1.16;58.83;100777.16;5036331;28;20202;-86
2021/04/27 04:03:54;;;;;;;3.33;1.77;;;;;;;1.14;59.26;100778.94;5024949;28;20245;-86
2021/04/27 04:06:20;;;;;;;2.90;1.67;;;;;;;1.14;59.13;100771.94;5044382;28;20600;-86
2021/04/27 04:08:46;;;;;;;3.17;1.80;;;;;;;1.11;58.80;100779.88;5030570;28;20218;-85
2021/04/27 04:11:13;;;;;;;2.60;1.57;;;;;;;1.12;58.97;100780.72;5035132;28;20638;-85
2021/04/27 04:13:39;;;;;;;2.67;1.77;;;;;;;1.10;59.26;100779.91;5027935;28;20254;-86
2021/04/27 04:16:06;;;;;;;5.43;1.70;;;;;;;1.10;59.08;100777.28;5039978;28;20227;-85
2021/04/27 04:18:33;;;;;;;3.37;2.07;;;;;;;1.07;59.31;100775.63;5033290;28;20782;-85
2021/04/27 04:20:59;;;;;;;6.77;1.80;;;;;;;1.05;59.25;100782.66;5040074;28;20207;-86
2021/04/27 04:23:26;;;;;;;2.23;1.57;;;;;;;1.00;59.67;100776.63;5038297;28;20210;-85
2021/04/27 04:25:52;;;;;;;5.67;1.90;;;;;;;0.95;59.57;100776.72;5034080;28;20736;-85
2021/04/27 04:28:18;;;;;;;8.43;2.00;;;;;;;0.91;59.49;100772.44;5033502;28;20660;-85
2021/04/27 04:30:44;;;;;;;3.00;1.70;;;;;;;0.90;59.64;100772.47;5029825;28;20210;-85
2021/04/27 04:33:11;;;;;;;3.33;1.60;;;;;;;0.88;60.00;100780.41;5034422;28;20226;-85
2021/04/27 04:35:38;;;;;;;4.93;2.00;;;;;;;0.85;60.10;100777.84;5031098;28;20207;-86
2021/04/27 04:38:04;;;;;;;2.80;1.80;;;;;;;0.86;60.51;100776.09;5035036;28;20226;-86
2021/04/27 04:40:31;;;;;;;3.13;1.57;;;;;;;0.86;60.58;100778.72;5035473;28;20210;-86
2021/04/27 04:42:57;;;;;;;3.43;1.70;;;;;;;0.84;60.51;100775.25;5025402;28;20285;-86
2021/04/27 04:45:25;;;;;;;2.60;1.93;;;;;;;0.85;60.50;100774.34;5015655;28;20294;-85
2021/04/27 04:47:52;;;;;;;2.60;1.80;;;;;;;0.89;60.86;100778.66;5016221;28;20231;-85
2021/04/27 04:50:20;;;;;;;2.87;2.00;;;;;;;0.90;60.86;100775.09;5016312;28;20206;-86
2021/04/27 04:52:47;;;;;;;6.53;1.83;;;;;;;0.92;61.05;100776.78;5035023;28;20228;-85
2021/04/27 04:55:15;;;;;;;2.97;1.80;;;;;;;0.94;61.22;100777.63;5036074;28;20206;-86
2021/04/27 04:57:41;;;;;;;3.93;2.03;;;;;;;0.97;61.00;100777.56;5035415;28;20241;-85
2021/04/27 05:00:11;;;;;;;4.73;2.00;;;;;;;1.00;60.99;100787.13;5037094;28;20597;-86
2021/04/27 05:02:37;;;;;;;3.87;1.90;;;;;;;1.02;61.02;100786.19;5020963;28;20230;-85
2021/04/27 05:05:06;;;;;;;2.87;1.80;;;;;;;1.05;61.06;100774.78;5034883;28;20202;-87
2021/04/27 05:07:38;;;;;;;4.30;2.20;;;;;;;1.10;61.12;100788.63;5034003;28;20241;-86
2021/04/27 05:10:09;;;;;;;3.10;2.00;;;;;;;1.16;61.27;100790.28;5034648;28;20238;-86
2021/04/27 05:12:35;;;;;;;3.70;1.83;;;;;;;1.19;61.23;100785.81;5028096;28;20210;-85
2021/04/27 05:15:02;;;;;;;3.27;2.27;;;;;;;1.27;60.96;100791.75;5024603;28;20817;-85
2021/04/27 05:17:28;;;;;;;3.60;2.33;;;;;;;1.33;60.98;100788.13;5029922;28;20234;-87
2021/04/27 05:19:54;;;;;;;4.53;2.40;;;;;;;1.38;60.59;100783.63;5030267;28;20266;-87
2021/04/27 05:22:22;;;;;;;5.73;1.93;;;;;;;1.47;60.78;100788.66;5015363;28;20265;-86
2021/04/27 05:24:49;;;;;;;3.47;2.23;;;;;;;1.53;60.77;100787.66;5018356;28;20210;-85
2021/04/27 05:27:16;;;;;;;3.50;2.40;;;;;;;1.57;60.70;100773.56;5016976;28;20215;-87
2021/04/27 05:29:42;;;;;;;3.67;1.83;;;;;;;1.64;60.51;100788.25;5027476;28;20229;-86
2021/04/27 05:32:08;;;;;;;3.97;2.23;;;;;;;1.71;60.55;100779.31;5026587;28;20286;-86
2021/04/27 05:34:37;;;;;;;5.70;2.67;;;;;;;1.78;60.96;100786.16;5034306;28;20226;-86
2021/04/27 05:37:04;;;;;;;4.60;2.07;;;;;;;1.82;60.85;100779.91;5034675;28;20214;-86
2021/04/27 05:39:31;;;;;;;4.83;2.23;;;;;;;1.92;60.90;100785.81;5035387;28;20222;-86
2021/04/27 05:41:57;;;;;;;4.47;2.00;;;;;;;2.03;61.27;100784.59;5036204;28;20194;-86
2021/04/27 05:44:42;;;;;;;4.60;2.23;;;;;;;2.16;60.88;100785.13;5051766;28;20185;-89
2021/04/27 05:47:09;;;;;;;3.60;2.00;;;;;;;2.29;60.96;100788.31;5045339;28;20190;-88
2021/04/27 05:49:37;;;;;;;3.00;2.03;;;;;;;2.40;60.66;100794.13;5048280;28;20233;-88
2021/04/27 05:52:04;;;;;;;3.67;2.30;;;;;;;2.53;60.95;100794.66;5040131;28;20286;-88
2021/04/27 05:54:30;;;;;;;3.23;2.07;;;;;;;2.65;60.85;100789.06;5026725;28;20756;-88
2021/04/27 05:56:56;;;;;;;4.03;2.43;;;;;;;2.80;60.89;100788.63;5026454;28;20218;-88
2021/04/27 05:59:23;;;;;;;3.43;2.20;;;;;;;2.95;60.12;100789.91;5033699;28;20229;-89
2021/04/27 06:01:50;;;;;;;3.87;2.03;;;;;;;3.06;60.50;100788.69;5033856;28;20673;-88
2021/04/27 06:04:19;;;;;;;2.50;1.90;;;;;;;3.24;59.87;100796.91;5034402;28;20206;-88
2021/04/27 06:06:46;;;;;;;4.50;2.10;;;;;;;3.41;60.24;100797.25;5025204;28;20665;-88
2021/04/27 06:09:15;;;;;;;4.93;2.50;;;;;;;3.60;60.18;100792.25;5035199;28;20222;-89
2021/04/27 06:11:43;;;;;;;3.60;1.87;;;;;;;3.77;59.88;100795.19;5032619;28;20223;-89
2021/04/27 06:14:10;;;;;;;5.40;2.17;;;;;;;3.93;59.44;100790.31;5018262;28;20249;-88
2021/04/27 06:16:37;;;;;;;5.03;2.37;;;;;;;4.06;58.75;100787.19;5035915;28;20218;-88
2021/04/27 06:19:04;;;;;;;4.17;2.63;;;;;;;4.19;58.97;100791.13;5039317;28;20227;-88
2021/04/27 06:21:33;;;;;;;4.00;2.20;;;;;;;4.33;58.45;100795.03;5037917;28;20232;-89
2021/04/27 06:24:05;;;;;;;4.77;1.90;;;;;;;4.45;57.46;100789.34;5028701;28;20609;-88
2021/04/27 06:26:32;;;;;;;2.70;2.10;;;;;;;4.61;57.41;100793.16;5021204;28;20218;-89
2021/04/27 06:29:03;;;;;;;3.40;1.77;;;;;;;4.81;56.47;100792.41;5029230;28;20316;-89
2021/04/27 06:31:29;;;;;;;4.53;2.10;;;;;;;4.99;55.99;100796.16;5043603;28;20204;-87
2021/04/27 06:33:58;;;;;;;3.30;1.87;;;;;;;5.15;55.19;100800.78;5043767;28;20712;-89
2021/04/27 06:36:26;;;;;;;3.57;1.93;;;;;;;5.33;54.67;100788.63;5037604;28;20214;-89
2021/04/27 06:38:52;;;;;;;3.03;2.10;;;;;;;5.55;54.61;100789.47;5031549;28;20220;-91
2021/04/27 06:41:27;;;;;;;2.87;1.70;;;;;;;5.74;53.28;100786.94;5046130;28;20519;-92
2021/04/27 06:43:53;;;;;;;4.70;2.27;;;;;;;5.90;53.34;100781.94;5036360;28;20212;-89
2021/04/27 06:46:23;;;;;;;3.93;2.30;;;;;;;6.12;52.66;100782.72;5032435;28;20207;-89
2021/04/27 06:48:55;;;;;;;4.40;1.60;;;;;;;6.33;51.86;100780.09;5034239;28;20226;-89
2021/04/27 06:51:22;;;;;;;2.87;1.90;;;;;;;6.53;51.00;100777.41;5039340;28;20212;-89
2021/04/27 06:53:58;;;;;;;3.33;1.87;;;;;;;6.70;50.40;100769.59;5036034;28;20231;-91
2021/04/27 06:56:27;;;;;;;4.67;1.70;;;;;;;6.85;49.62;100765.38;5059975;28;20274;-92
2021/04/27 06:58:53;;;;;;;2.53;1.87;;;;;;;7.01;48.77;100774.31;5056794;28;20250;-90
2021/04/27 07:04:47;;;;;;;2.33;1.60;;;;;;;7.35;47.03;100762.13;5030787;28;20206;-87
2021/04/27 07:07:14;;;;;;;1.80;1.50;;;;;;;7.51;46.58;100757.81;5034927;28;20210;-89
2021/04/27 07:09:41;;;;;;;2.50;1.40;;;;;;;7.64;46.07;100758.94;5027463;28;20218;-88
2021/04/27 07:12:12;;;;;;;5.50;1.77;;;;;;;7.79;45.32;100763.47;5028895;28;20223;-88
2021/04/27 07:14:39;;;;;;;2.67;1.70;;;;;;;7.92;44.79;100763.69;5033158;28;20230;-87
2021/04/27 07:17:05;;;;;;;2.50;1.60;;;;;;;8.06;44.26;100761.19;5035132;28;20298;-88
2021/04/27 07:19:34;;;;;;;4.03;1.50;;;;;;;8.14;43.45;100759.00;5032881;28;20243;-87
2021/04/27 07:22:03;;;;;;;3.73;1.70;;;;;;;8.22;42.85;100759.50;5029959;28;20210;-87
2021/04/27 07:24:30;;;;;;;1.90;1.40;;;;;;;8.35;43.19;100752.63;5031590;28;20241;-87
2021/04/27 07:26:58;;;;;;;2.73;1.87;;;;;;;8.54;43.55;100754.31;5033327;28;20198;-87
2021/04/27 07:29:25;;;;;;;4.40;2.17;;;;;;;8.74;42.55;100751.44;5033559;28;20218;-88
2021/04/27 07:31:51;;;;;;;3.40;1.60;;;;;;;8.85;41.12;100753.50;5031626;28;20211;-88
2021/04/27 07:34:17;;;;;;;2.03;1.57;;;;;;;8.93;41.20;100744.19;5028331;28;20297;-88
2021/04/27 07:36:46;;;;;;;2.97;1.70;;;;;;;9.04;40.67;100746.25;5028566;28;20637;-88
2021/04/27 07:39:14;;;;;;;5.43;1.57;;;;;;;9.18;41.13;100740.16;5027273;28;20704;-89
2021/04/27 07:41:56;;;;;;;1.93;1.73;;;;;;;9.33;40.70;100733.97;5024157;28;20206;-88
2021/04/27 07:44:25;;;;;;;3.73;1.93;;;;;;;9.44;39.26;100730.72;5032896;28;20214;-88
2021/04/27 07:47:02;;;;;;;3.93;2.00;;;;;;;9.55;40.45;100721.16;5032727;28;20593;-89
2021/04/27 07:49:31;;;;;;;2.57;1.60;;;;;;;9.76;39.77;100727.03;5034784;28;20233;-88
2021/04/27 07:51:58;;;;;;;5.30;1.60;;;;;;;9.96;39.26;100728.53;5032035;28;20215;-88
2021/04/27 07:54:24;;;;;;;4.23;2.20;;;;;;;10.13;38.62;100723.06;5034925;28;20252;-89
2021/04/27 07:56:50;;;;;;;3.20;1.83;;;;;;;10.26;38.08;100721.38;5032322;28;20219;-88
2021/04/27 07:59:17;;;;;;;2.73;1.77;;;;;;;10.34;37.25;100721.78;5033212;28;20321;-88
2021/04/27 08:01:44;;;;;;;4.23;1.90;;;;;;;10.33;36.95;100720.06;5034859;28;20249;-89
2021/04/27 08:04:10;;;;;;;2.63;1.50;;;;;;;10.32;36.69;100717.50;5031653;28;20210;-88
2021/04/27 08:06:36;;;;;;;3.20;1.70;;;;;;;10.26;36.36;100720.53;5027665;28;20198;-89
2021/04/27 08:09:04;;;;;;;4.30;2.13;;;;;;;10.18;35.72;100725.44;5032229;28;20241;-88
2021/04/27 08:11:33;;;;;;;2.77;1.57;;;;;;;10.15;35.88;100715.84;5035003;28;20271;-89
2021/04/27 08:13:59;;;;;;;2.30;1.50;;;;;;;10.17;35.75;100723.72;5032328;28;20226;-89
2021/04/27 08:16:26;;;;;;;2.60;1.90;;;;;;;10.27;36.08;100716.94;5034154;28;20210;-89
2021/04/27 08:18:53;;;;;;;2.90;1.70;;;;;;;10.41;35.94;100717.78;5028064;28;20234;-89
2021/04/27 08:21:20;;;;;;;1.60;1.50;;;;;;;10.52;35.02;100709.16;5030590;28;20257;-89
2021/04/27 08:23:46;;;;;;;2.27;1.40;;;;;;;10.55;34.83;100713.44;5031551;28;20800;-89
2021/04/27 08:26:14;;;;;;;3.43;1.60;;;;;;;10.56;34.90;100712.47;5032237;28;20234;-89
2021/04/27 08:28:40;;;;;;;3.90;1.57;;;;;;;10.62;34.77;100704.94;5031844;28;20253;-89
2021/04/27 08:31:07;;;;;;;1.77;1.20;;;;;;;10.71;34.71;100707.06;5038022;28;20229;-89
2021/04/27 08:33:33;;;;;;;3.67;1.60;;;;;;;10.82;33.94;100711.69;5032784;28;20255;-89
2021/04/27 08:36:03;;;;;;;1.93;1.50;;;;;;;10.90;32.97;100706.75;5038865;28;20313;-89
2021/04/27 08:38:29;;;;;;;2.37;1.50;;;;;;;10.92;33.11;100699.50;5022235;28;20313;-89
2021/04/27 08:41:08;;;;;;;;;;;;;;;;;;;;;
2021/04/27 08:43:48;;;;;;;2.37;1.40;;;;;;;11.00;32.11;100702.53;5022916;28;20337;-89
2021/04/27 08:46:15;;;;;;;1.37;1.20;;;;;;;11.04;32.63;100706.72;5037896;28;20229;-89
2021/04/27 08:48:42;;;;;;;1.80;1.20;;;;;;;11.17;32.64;100704.09;5025038;28;20219;-89
2021/04/27 08:51:09;;;;;;;2.50;1.60;;;;;;;11.26;32.75;100702.66;5032488;28;20202;-89
2021/04/27 08:53:35;;;;;;;2.40;1.50;;;;;;;11.39;32.13;100703.56;5022056;28;20219;-89
2021/04/27 08:56:01;;;;;;;2.33;1.20;;;;;;;11.46;31.29;100691.53;5029165;28;20211;-89
2021/04/27 08:58:32;;;;;;;1.83;1.40;;;;;;;11.47;31.06;100701.22;5031240;28;20281;-88
2021/04/27 09:01:06;;;;;;;3.27;1.50;;;;;;;11.54;30.81;100699.00;5040450;28;20244;-89
2021/04/27 09:04:02;;;;;;;6.40;1.67;;;;;;;11.55;30.42;100695.38;5037633;28;20198;-88
2021/04/27 09:06:30;;;;;;;2.20;1.40;;;;;;;11.58;30.77;100680.03;5032886;28;20243;-88
2021/04/27 09:08:56;;;;;;;2.40;1.60;;;;;;;11.66;31.22;100683.03;5027408;28;20693;-88
2021/04/27 09:11:29;;;;;;;2.03;1.50;;;;;;;11.77;31.21;100693.03;5030316;28;20268;-90
2021/04/27 09:14:14;;;;;;;2.33;1.40;;;;;;;11.89;30.83;100676.19;5040047;28;20234;-88
2021/04/27 09:16:45;;;;;;;1.90;1.27;;;;;;;11.93;30.29;100677.69;5035813;28;20213;-88
2021/04/27 09:19:28;;;;;;;1.67;1.10;;;;;;;11.83;29.39;100674.78;5040413;28;20278;-88
2021/04/27 09:22:06;;;;;;;2.10;1.67;;;;;;;11.75;30.37;100669.09;5042236;28;20210;-88
2021/04/27 09:24:41;;;;;;;2.37;1.60;;;;;;;11.75;30.29;100666.41;5030705;28;20217;-88
2021/04/27 09:27:14;;;;;;;3.33;1.73;;;;;;;11.75;30.76;100665.56;5042951;28;20629;-89
2021/04/27 09:29:59;;;;;;;1.57;1.30;;;;;;;11.81;30.15;100674.06;5036537;28;20594;-88
2021/04/27 09:32:47;;;;;;;2.27;1.30;;;;;;;11.82;29.95;100672.25;5040720;28;20281;-90
2021/04/27 09:35:34;;;;;;;1.60;1.20;;;;;;;11.76;29.13;100667.31;5025210;28;20230;-88
2021/04/27 09:38:16;;;;;;;2.83;1.27;;;;;;;11.78;29.75;100654.72;5027803;28;20253;-88
2021/04/27 09:40:52;;;;;;;3.77;1.20;;;;;;;11.86;29.64;100652.38;5036778;28;20194;-87
2021/04/27 09:43:19;;;;;;;3.77;1.40;;;;;;;11.87;28.51;100654.06;5027346;28;20280;-87
2021/04/27 09:45:48;;;;;;;2.53;1.33;;;;;;;11.81;28.42;100647.38;5022601;28;20673;-87
2021/04/27 09:48:29;;;;;;;2.67;1.50;;;;;;;11.78;28.60;100650.25;5021152;28;20265;-88
2021/04/27 09:50:55;;;;;;;2.90;1.53;;;;;;;11.78;29.48;100650.25;5021136;28;20202;-89
2021/04/27 09:53:38;;;;;;;2.47;1.10;;;;;;;11.83;28.35;100639.22;5032405;28;20226;-87
2021/04/27 09:56:07;;;;;;;2.27;1.30;;;;;;;11.91;28.76;100628.91;5048157;28;20210;-91
2021/04/27 09:58:33;;;;;;;2.80;1.47;;;;;;;11.99;28.67;100639.06;5055021;28;20210;-90
2021/04/27 10:01:00;;;;;;;1.83;1.30;;;;;;;12.08;28.24;100635.72;5054294;28;20214;-94
2021/04/27 10:03:26;;;;;;;2.60;1.37;;;;;;;12.11;28.57;100635.53;5055917;28;20185;-92
2021/04/27 10:05:54;;;;;;;1.50;1.40;;;;;;;12.19;28.10;100633.16;5058698;28;20288;-89
2021/04/27 10:08:20;;;;;;;3.53;1.23;;;;;;;12.21;28.11;100615.22;5042323;28;20227;-88
2021/04/27 10:10:48;;;;;;;2.97;1.20;;;;;;;12.20;27.97;100618.00;5038645;28;20202;-89
2021/04/27 10:13:15;;;;;;;2.70;1.50;;;;;;;12.20;27.97;100623.31;5038096;28;20198;-87
2021/04/27 10:15:42;;;;;;;1.93;1.40;;;;;;;12.25;28.01;100622.06;5034165;28;20220;-87
2021/04/27 10:18:10;;;;;;;2.13;1.30;;;;;;;12.27;28.27;100604.09;5024949;28;20227;-87
2021/04/27 10:20:37;;;;;;;1.93;1.40;;;;;;;12.34;28.15;100608.06;5033548;28;20213;-90
2021/04/27 10:23:05;;;;;;;2.27;1.73;;;;;;;12.36;28.18;100606.09;5049582;28;20309;-89
2021/04/27 10:25:32;;;;;;;3.03;1.63;;;;;;;12.36;28.13;100606.09;5057139;28;20225;-91
2021/04/27 10:28:04;;;;;;;2.97;1.70;;;;;;;12.41;27.98;100593.28;5052189;28;20681;-89
2021/04/27 10:30:41;;;;;;;2.27;1.50;;;;;;;12.44;27.81;100606.44;5024226;28;20250;-88
2021/04/27 10:33:16;;;;;;;4.60;1.70;;;;;;;12.42;27.48;100580.78;5034816;28;20235;-88
2021/04/27 10:36:00;;;;;;;4.47;1.77;;;;;;;12.45;27.87;100592.09;5034778;28;20566;-87
2021/04/27 10:38:41;;;;;;;3.60;1.80;;;;;;;12.52;28.58;100581.84;5019086;28;20318;-87
2021/04/27 10:41:11;;;;;;;3.17;1.80;;;;;;;12.56;29.24;100587.78;5019011;28;20338;-87
2021/04/27 10:43:53;;;;;;;3.00;2.17;;;;;;;12.60;28.94;100565.25;5019836;28;20207;-87
2021/04/27 10:47:02;;;;;;;2.63;1.60;;;;;;;12.58;29.46;100577.84;5029251;28;20675;-87
2021/04/27 10:49:42;;;;;;;2.60;1.60;;;;;;;12.59;29.26;100571.53;5040830;28;20290;-87
2021/04/27 10:52:27;;;;;;;3.50;1.83;;;;;;;12.61;28.82;100580.31;5040261;28;20256;-86
2021/04/27 10:55:42;;;;;;;3.30;1.70;;;;;;;12.62;28.50;100563.31;5041945;28;20608;-88
2021/04/27 10:58:34;;;;;;;1.93;1.50;;;;;;;12.56;28.01;100558.41;5040498;28;20266;-87
2021/04/27 11:01:20;;;;;;;2.93;1.90;;;;;;;12.54;28.45;100555.03;5039524;28;20691;-88
2021/04/27 11:03:50;;;;;;;1.83;1.30;;;;;;;12.51;28.16;100556.94;5030332;28;20214;-89
2021/04/27 11:06:17;;;;;;;2.23;1.60;;;;;;;12.48;28.48;100554.50;5035034;28;20657;-87
2021/04/27 11:08:47;;;;;;;3.20;1.70;;;;;;;12.55;27.97;100557.56;5029777;28;20315;-87
2021/04/27 11:11:18;;;;;;;2.07;1.73;;;;;;;12.54;28.02;100545.16;5018754;28;20203;-88
2021/04/27 11:13:47;;;;;;;3.37;1.47;;;;;;;12.58;28.33;100535.09;5017640;28;20253;-88
2021/04/27 11:16:30;;;;;;;4.00;1.57;;;;;;;12.65;28.04;100542.56;5016248;28;20577;-87
2021/04/27 11:19:49;;;;;;;4.40;1.53;;;;;;;12.64;28.05;100540.88;5015788;28;20234;-87
2021/04/27 11:22:24;;;;;;;6.33;1.80;;;;;;;12.68;28.14;100533.47;4935345;29;20296;-87
2021/04/27 11:24:52;;;;;;;3.27;1.60;;;;;;;12.70;27.85;100536.91;5013145;28;20203;-87
2021/04/27 11:27:29;;;;;;;2.80;1.73;;;;;;;12.71;27.68;100530.59;5015035;28;20207;-87
2021/04/27 11:30:03;;;;;;;1.90;1.60;;;;;;;12.75;27.66;100532.03;5013395;28;20314;-88
2021/04/27 11:32:31;;;;;;;1.97;1.30;;;;;;;12.82;27.66;100526.16;5015529;28;20299;-89
2021/04/27 11:35:03;;;;;;;6.37;1.90;;;;;;;12.88;27.18;100522.16;5022093;28;20246;-89
2021/04/27 11:37:36;;;;;;;4.03;1.80;;;;;;;12.88;27.55;100518.63;5020834;28;20199;-88
2021/04/27 11:40:24;;;;;;;3.80;1.90;;;;;;;12.94;28.20;100527.03;5024796;28;20208;-88
2021/04/27 11:42:58;;;;;;;2.00;1.70;;;;;;;13.00;27.95;100515.88;5022202;28;20202;-89
2021/04/27 11:45:29;;;;;;;3.70;2.00;;;;;;;13.06;28.29;100512.75;5024826;28;20285;-88